Time;durP1;ratioP1;P1;durP2;ratioP2;P2;SDS_P1;SDS_P2;PMS_P1;PMS_P2;Temp;Humidity;BMP_temperature;BMP_pressure;BME280_temperature;BME280_humidity;BME280_pressure;Samples;Min_cycle;Max_cycle;Signal;HPM_P1;HPM_P2
2024/02/29 00:02:13;;;;;;;15.90;8.52;;;1.80;99.90;;;;;;5107620;28;20543;-60
2024/02/29 00:04:40;;;;;;;14.65;8.57;;;1.80;99.90;;;;;;5106549;28;20104;-60
2024/02/29 00:07:08;;;;;;;11.25;8.38;;;1.80;99.90;;;;;;5110018;28;20494;-60
2024/02/29 00:09:38;;;;;;;12.23;8.80;;;1.80;99.90;;;;;;5110304;28;20101;-59
2024/02/29 00:12:06;;;;;;;11.63;7.45;;;1.80;99.90;;;;;;5105543;28;20089;-59
2024/02/29 00:14:33;;;;;;;11.60;7.07;;;1.80;99.90;;;;;;5110717;28;20046;-62
2024/02/29 00:17:00;;;;;;;10.82;7.75;;;1.80;99.90;;;;;;5106345;28;20059;-59
2024/02/29 00:19:28;;;;;;;13.93;8.00;;;1.80;99.90;;;;;;5107442;28;20051;-59
2024/02/29 00:21:55;;;;;;;11.98;8.27;;;1.80;99.90;;;;;;5108932;28;20410;-61
2024/02/29 00:24:22;;;;;;;13.95;7.82;;;1.70;99.90;;;;;;5106599;28;20083;-61
2024/02/29 00:26:50;;;;;;;14.38;8.27;;;1.60;99.90;;;;;;5109746;28;20376;-61
2024/02/29 00:29:17;;;;;;;13.57;8.75;;;1.60;99.90;;;;;;5109973;28;20050;-60
2024/02/29 00:31:44;;;;;;;13.88;9.70;;;1.50;99.90;;;;;;5106301;28;20044;-63
2024/02/29 00:34:12;;;;;;;13.68;8.60;;;1.50;99.90;;;;;;5110185;28;20043;-62
2024/02/29 00:36:39;;;;;;;10.82;7.93;;;1.50;99.90;;;;;;5109715;28;20116;-61
2024/02/29 00:39:07;;;;;;;13.25;8.70;;;1.40;99.90;;;;;;5109430;28;20079;-63
2024/02/29 00:41:41;;;;;;;14.88;8.40;;;1.40;99.90;;;;;;5091397;28;20051;-60
2024/02/29 00:44:09;;;;;;;13.85;9.35;;;1.40;99.90;;;;;;5107149;28;20036;-63
2024/02/29 00:46:42;;;;;;;14.02;8.40;;;1.40;99.90;;;;;;5109800;28;20052;-60
2024/02/29 00:49:08;;;;;;;13.70;9.00;;;1.30;99.90;;;;;;5105918;28;20104;-62
2024/02/29 00:51:35;;;;;;;15.27;10.10;;;1.40;99.90;;;;;;5109572;28;20044;-61
2024/02/29 00:54:02;;;;;;;15.45;10.23;;;1.30;99.90;;;;;;5109957;28;20044;-63
2024/02/29 00:56:29;;;;;;;16.15;10.48;;;1.30;99.90;;;;;;5110290;28;20698;-59
2024/02/29 00:58:56;;;;;;;15.82;10.55;;;1.40;99.90;;;;;;5104308;28;20039;-61
2024/02/29 01:01:23;;;;;;;14.43;9.43;;;1.40;99.90;;;;;;5109099;28;20052;-59
2024/02/29 01:03:50;;;;;;;19.85;10.30;;;1.40;99.90;;;;;;5107061;28;20043;-60
2024/02/29 01:06:17;;;;;;;21.60;11.73;;;1.50;99.90;;;;;;5109455;28;20120;-61
2024/02/29 01:08:44;;;;;;;20.23;11.27;;;1.50;99.90;;;;;;5106955;28;20097;-60
2024/02/29 01:11:12;;;;;;;26.40;11.48;;;1.50;99.90;;;;;;5109480;28;20096;-59
2024/02/29 01:13:39;;;;;;;24.80;10.93;;;1.50;99.90;;;;;;5109547;28;20036;-60
2024/02/29 01:16:06;;;;;;;18.42;13.68;;;1.50;99.90;;;;;;5108758;28;20516;-59
2024/02/29 01:18:33;;;;;;;24.27;12.85;;;1.50;99.90;;;;;;5107103;28;20036;-59
2024/02/29 01:21:00;;;;;;;20.80;12.77;;;1.50;99.90;;;;;;5108800;28;20044;-61
2024/02/29 01:23:27;;;;;;;29.15;12.90;;;1.50;99.90;;;;;;5091036;28;20535;-59
2024/02/29 01:25:53;;;;;;;21.58;11.82;;;1.50;99.90;;;;;;5109286;28;20043;-60
2024/02/29 01:28:20;;;;;;;20.35;13.85;;;1.50;99.90;;;;;;5108873;28;20421;-60
2024/02/29 01:30:48;;;;;;;22.90;12.40;;;1.50;99.90;;;;;;5108445;28;20044;-60
2024/02/29 01:33:15;;;;;;;23.15;14.00;;;1.50;99.90;;;;;;5109089;28;20040;-59
2024/02/29 01:35:42;;;;;;;25.38;13.02;;;1.40;99.90;;;;;;5109366;28;20082;-61
2024/02/29 01:38:09;;;;;;;23.13;13.23;;;1.40;99.90;;;;;;5109097;28;20138;-61
2024/02/29 01:40:36;;;;;;;21.17;12.65;;;1.40;99.90;;;;;;5103922;28;20388;-60
2024/02/29 01:43:03;;;;;;;25.45;12.10;;;1.30;99.90;;;;;;5090927;28;20048;-67
2024/02/29 01:45:30;;;;;;;24.58;12.70;;;1.30;99.90;;;;;;5108479;28;20162;-61
2024/02/29 01:47:57;;;;;;;24.75;14.32;;;1.30;99.90;;;;;;5108506;28;20120;-60
2024/02/29 01:50:24;;;;;;;24.75;12.95;;;1.30;99.90;;;;;;5109047;28;20131;-62
2024/02/29 01:52:52;;;;;;;23.02;13.00;;;1.30;99.90;;;;;;5109254;28;20039;-60
2024/02/29 01:55:19;;;;;;;22.27;15.35;;;1.30;99.90;;;;;;5108492;28;20043;-60
2024/02/29 01:57:46;;;;;;;31.02;14.93;;;1.20;99.90;;;;;;5090442;28;20445;-67
2024/02/29 02:00:14;;;;;;;31.27;14.20;;;1.20;99.90;;;;;;5107641;28;20081;-60
2024/02/29 02:02:41;;;;;;;31.23;16.08;;;1.20;99.90;;;;;;5108065;28;20044;-60
2024/02/29 02:05:08;;;;;;;20.30;12.68;;;1.30;99.90;;;;;;5107942;28;20108;-63
2024/02/29 02:07:35;;;;;;;20.73;13.07;;;1.20;99.90;;;;;;5103996;28;20126;-61
2024/02/29 02:10:06;;;;;;;21.35;13.07;;;1.20;99.90;;;;;;5109139;28;20046;-60
2024/02/29 02:12:35;;;;;;;22.90;13.88;;;1.20;99.90;;;;;;5109627;28;20047;-59
2024/02/29 02:15:02;;;;;;;25.42;13.80;;;1.10;99.90;;;;;;5110611;28;20075;-65
2024/02/29 02:17:32;;;;;;;22.20;13.75;;;1.10;99.90;;;;;;5112291;28;20062;-60
2024/02/29 02:20:00;;;;;;;21.48;12.27;;;1.10;99.90;;;;;;5112300;28;20043;-59
2024/02/29 02:22:28;;;;;;;27.80;16.05;;;1.10;99.90;;;;;;5111454;28;20050;-60
2024/02/29 02:24:55;;;;;;;24.67;14.93;;;1.10;99.90;;;;;;5111869;28;20479;-59
2024/02/29 02:27:23;;;;;;;27.30;16.30;;;1.10;99.90;;;;;;5108832;28;20113;-59
2024/02/29 02:29:50;;;;;;;26.58;16.88;;;1.10;99.90;;;;;;5112311;28;20093;-61
2024/02/29 02:32:17;;;;;;;32.90;17.23;;;1.10;99.90;;;;;;5110409;28;20127;-60
2024/02/29 02:34:44;;;;;;;31.50;16.75;;;1.10;99.90;;;;;;5111049;28;20147;-60
2024/02/29 02:37:11;;;;;;;35.08;16.92;;;1.20;99.90;;;;;;5107409;28;20068;-59
2024/02/29 02:39:38;;;;;;;35.47;19.85;;;1.20;99.90;;;;;;5109551;28;20048;-62
2024/02/29 02:42:06;;;;;;;32.10;19.13;;;1.30;99.90;;;;;;5111656;28;20131;-62
2024/02/29 02:44:33;;;;;;;38.97;20.50;;;1.30;99.90;;;;;;5112199;28;20031;-60
2024/02/29 02:47:00;;;;;;;36.10;19.17;;;1.40;99.90;;;;;;5109700;28;20039;-63
2024/02/29 02:49:27;;;;;;;33.05;19.05;;;1.50;99.90;;;;;;5110523;28;20043;-62
2024/02/29 02:51:54;;;;;;;34.85;20.85;;;1.60;99.90;;;;;;5111303;28;20109;-60
2024/02/29 02:54:21;;;;;;;37.47;20.88;;;1.70;99.90;;;;;;5110050;28;20050;-61
2024/02/29 02:56:48;;;;;;;37.47;19.45;;;1.70;99.90;;;;;;5111556;28;20043;-62
2024/02/29 02:59:15;;;;;;;44.72;21.75;;;1.70;99.90;;;;;;5111230;28;20043;-61
2024/02/29 03:01:42;;;;;;;45.90;24.30;;;1.80;99.90;;;;;;5107346;28;20429;-60
2024/02/29 03:04:09;;;;;;;43.53;22.70;;;1.80;99.90;;;;;;5104652;28;20437;-59
2024/02/29 03:06:36;;;;;;;46.45;24.58;;;1.80;99.90;;;;;;5109934;28;20084;-61
2024/02/29 03:09:03;;;;;;;42.65;20.77;;;1.80;99.90;;;;;;5106919;28;20039;-61
2024/02/29 03:11:29;;;;;;;41.22;22.92;;;1.80;99.90;;;;;;5106157;28;20036;-61
2024/02/29 03:13:57;;;;;;;39.15;20.25;;;1.80;99.90;;;;;;5111268;28;20047;-62
2024/02/29 03:16:25;;;;;;;43.85;22.45;;;1.90;99.90;;;;;;5111373;28;20104;-63
2024/02/29 03:18:52;;;;;;;48.03;25.42;;;1.90;99.90;;;;;;5075370;28;20059;-61
2024/02/29 03:21:19;;;;;;;49.70;25.17;;;1.90;99.90;;;;;;5111205;28;20047;-62
2024/02/29 03:23:47;;;;;;;51.22;22.75;;;1.90;99.90;;;;;;5109178;28;20043;-63
2024/02/29 03:26:15;;;;;;;52.13;25.75;;;1.90;99.90;;;;;;5108198;28;20055;-61
2024/02/29 03:28:42;;;;;;;52.58;24.50;;;1.90;99.90;;;;;;5111072;28;20036;-60
2024/02/29 03:31:13;;;;;;;47.13;24.83;;;1.90;99.90;;;;;;5093170;28;20479;-60
2024/02/29 03:33:41;;;;;;;42.90;23.67;;;2.00;99.90;;;;;;5111252;28;20751;-60
2024/02/29 03:36:09;;;;;;;53.13;25.40;;;2.00;99.90;;;;;;5108476;28;20071;-60
2024/02/29 03:38:36;;;;;;;51.40;24.48;;;2.00;99.90;;;;;;5108832;28;20059;-60
2024/02/29 03:41:06;;;;;;;40.08;21.45;;;2.00;99.90;;;;;;5107854;28;20044;-60
2024/02/29 03:43:37;;;;;;;43.33;19.45;;;2.00;99.90;;;;;;5109892;28;20131;-63
2024/02/29 03:46:04;;;;;;;45.60;24.88;;;1.90;99.90;;;;;;5107222;28;20035;-60
2024/02/29 03:48:31;;;;;;;43.83;24.48;;;2.00;99.90;;;;;;5109076;28;20449;-65
2024/02/29 03:50:58;;;;;;;40.80;23.75;;;2.00;99.90;;;;;;5111436;28;20097;-60
2024/02/29 03:53:25;;;;;;;49.20;24.75;;;2.00;99.90;;;;;;5110559;28;20047;-61
2024/02/29 03:55:52;;;;;;;48.58;23.88;;;2.00;99.90;;;;;;5110462;28;20056;-60
2024/02/29 03:58:19;;;;;;;50.25;24.63;;;1.90;99.90;;;;;;5107492;28;20042;-60
2024/02/29 04:00:48;;;;;;;56.13;27.42;;;1.90;99.90;;;;;;5106449;28;20131;-60
2024/02/29 04:03:15;;;;;;;54.22;24.52;;;1.90;99.90;;;;;;5108068;28;20101;-59
2024/02/29 04:05:43;;;;;;;52.05;25.98;;;1.90;99.90;;;;;;5091860;28;20040;-64
2024/02/29 04:08:13;;;;;;;48.25;24.48;;;1.90;99.90;;;;;;5109890;28;20055;-62
2024/02/29 04:10:48;;;;;;;44.20;22.95;;;1.90;99.90;;;;;;5109650;28;20044;-59
2024/02/29 04:13:19;;;;;;;49.03;25.88;;;1.80;99.90;;;;;;5106465;28;20046;-60
2024/02/29 04:15:46;;;;;;;44.15;22.35;;;1.80;99.90;;;;;;5109945;28;20044;-63
2024/02/29 04:18:16;;;;;;;47.38;24.15;;;1.80;99.90;;;;;;5108912;28;20036;-59
2024/02/29 04:20:46;;;;;;;51.75;24.08;;;1.70;99.90;;;;;;5110396;28;20043;-62
2024/02/29 04:23:13;;;;;;;49.00;25.02;;;1.70;99.90;;;;;;5107972;28;20131;-60
2024/02/29 04:25:40;;;;;;;49.53;25.45;;;1.70;99.90;;;;;;5110813;28;20047;-60
2024/02/29 04:28:07;;;;;;;51.38;23.67;;;1.70;99.90;;;;;;5108556;28;20078;-60
2024/02/29 04:30:34;;;;;;;54.00;23.00;;;1.70;99.90;;;;;;5109735;28;20528;-62
2024/02/29 04:33:04;;;;;;;59.22;25.45;;;1.60;99.90;;;;;;5107589;28;20313;-62
2024/02/29 04:35:31;;;;;;;58.38;25.63;;;1.70;99.90;;;;;;5107101;28;20126;-62
2024/02/29 04:37:58;;;;;;;54.33;24.58;;;1.60;99.90;;;;;;5110134;28;20447;-59
2024/02/29 04:40:26;;;;;;;53.28;25.65;;;1.70;99.90;;;;;;5107867;28;20047;-61
2024/02/29 04:42:53;;;;;;;55.80;23.42;;;1.70;99.90;;;;;;5107459;28;20047;-60
2024/02/29 04:45:23;;;;;;;55.05;24.67;;;1.70;99.90;;;;;;5109600;28;20126;-62
2024/02/29 04:47:52;;;;;;;50.85;24.20;;;1.70;99.90;;;;;;5109051;28;20130;-60
2024/02/29 04:50:18;;;;;;;55.88;25.80;;;1.70;99.90;;;;;;5108920;28;20036;-61
2024/02/29 04:52:45;;;;;;;58.22;25.95;;;1.70;99.90;;;;;;5110496;28;20100;-62
2024/02/29 04:55:12;;;;;;;49.92;25.17;;;1.70;99.90;;;;;;5107231;28;20043;-60
2024/02/29 04:57:39;;;;;;;57.13;25.73;;;1.80;99.90;;;;;;5108566;28;20521;-59
2024/02/29 05:00:07;;;;;;;51.08;24.88;;;1.80;99.90;;;;;;5104967;28;20070;-62
2024/02/29 05:02:34;;;;;;;53.30;25.30;;;1.80;99.90;;;;;;5109037;28;20552;-60
2024/02/29 05:05:01;;;;;;;52.50;26.65;;;1.80;99.90;;;;;;5110059;28;20043;-61
2024/02/29 05:07:28;;;;;;;52.45;27.60;;;1.80;99.90;;;;;;5091903;28;20047;-59
2024/02/29 05:09:55;;;;;;;55.25;26.40;;;1.80;99.90;;;;;;5109743;28;20063;-59
2024/02/29 05:12:22;;;;;;;61.63;26.10;;;1.80;99.90;;;;;;5107758;28;20122;-60
2024/02/29 05:14:49;;;;;;;51.40;26.40;;;1.80;99.90;;;;;;5109809;28;20068;-60
2024/02/29 05:17:16;;;;;;;62.10;26.95;;;1.80;99.90;;;;;;5108207;28;20498;-59
2024/02/29 05:19:43;;;;;;;56.13;26.75;;;1.80;99.90;;;;;;5108551;28;20042;-64
2024/02/29 05:22:10;;;;;;;63.97;26.80;;;1.80;99.90;;;;;;5107794;28;20047;-60
2024/02/29 05:24:37;;;;;;;61.67;26.88;;;1.80;99.90;;;;;;5109866;28;20050;-59
2024/02/29 05:27:04;;;;;;;55.85;27.52;;;1.80;99.90;;;;;;5108515;28;20221;-60
2024/02/29 05:29:31;;;;;;;59.88;25.80;;;1.70;99.90;;;;;;5105791;28;20171;-66
2024/02/29 05:31:58;;;;;;;57.95;28.35;;;1.70;99.90;;;;;;5105863;28;20097;-60
2024/02/29 05:34:25;;;;;;;55.63;26.17;;;1.70;99.90;;;;;;5105285;28;20050;-59
2024/02/29 05:36:52;;;;;;;53.53;27.40;;;1.70;99.90;;;;;;5108201;28;20097;-61
2024/02/29 05:39:19;;;;;;;51.83;25.08;;;1.60;99.90;;;;;;5104708;28;20051;-59
2024/02/29 05:41:46;;;;;;;56.60;26.83;;;1.60;99.90;;;;;;5104961;28;20069;-60
2024/02/29 05:44:13;;;;;;;62.20;27.13;;;1.60;99.90;;;;;;5106351;28;20047;-61
2024/02/29 05:46:40;;;;;;;57.65;26.42;;;1.60;99.90;;;;;;5110591;28;20083;-59
2024/02/29 05:49:07;;;;;;;54.95;27.33;;;1.60;99.90;;;;;;5110766;28;20039;-59
2024/02/29 05:51:34;;;;;;;55.75;25.90;;;1.60;99.90;;;;;;5113358;28;20047;-61
2024/02/29 05:54:02;;;;;;;59.60;27.02;;;1.60;99.90;;;;;;5108585;28;20044;-59
2024/02/29 05:56:29;;;;;;;64.45;24.70;;;1.70;99.90;;;;;;5112645;28;20043;-59
2024/02/29 05:58:56;;;;;;;54.45;26.33;;;1.70;99.90;;;;;;5113404;28;20042;-62
2024/02/29 06:01:23;;;;;;;55.20;27.80;;;1.70;99.90;;;;;;5112913;28;20047;-62
2024/02/29 06:03:50;;;;;;;50.97;25.08;;;1.70;99.90;;;;;;5111196;28;20100;-61
2024/02/29 06:06:17;;;;;;;59.08;26.80;;;1.70;99.90;;;;;;5108607;28;20039;-59
2024/02/29 06:08:44;;;;;;;62.67;28.50;;;1.80;99.90;;;;;;5112611;28;20066;-61
2024/02/29 06:11:14;;;;;;;59.28;27.85;;;1.80;99.90;;;;;;5112510;28;20048;-60
2024/02/29 06:13:42;;;;;;;56.28;27.05;;;1.90;99.90;;;;;;5113397;28;20039;-60
2024/02/29 06:16:13;;;;;;;68.30;31.00;;;1.90;99.90;;;;;;5112441;28;20047;-60
2024/02/29 06:18:40;;;;;;;64.25;30.58;;;2.00;99.90;;;;;;5109781;28;20130;-59
2024/02/29 06:21:07;;;;;;;61.80;27.70;;;2.00;99.90;;;;;;5094347;28;20124;-59
2024/02/29 06:23:36;;;;;;;70.45;29.52;;;2.00;99.90;;;;;;5112532;28;20040;-63
2024/02/29 06:26:03;;;;;;;75.32;29.42;;;2.10;99.90;;;;;;5111281;28;20115;-64
2024/02/29 06:28:30;;;;;;;63.60;27.95;;;2.20;99.90;;;;;;5111723;28;20114;-60
2024/02/29 06:30:57;;;;;;;62.75;30.02;;;2.20;99.90;;;;;;5089034;28;20489;-59
2024/02/29 06:33:25;;;;;;;59.08;26.52;;;2.20;99.90;;;;;;5106545;28;20043;-62
2024/02/29 06:35:52;;;;;;;56.10;28.02;;;2.30;99.90;;;;;;5110921;28;20040;-59
2024/02/29 06:38:19;;;;;;;58.63;26.30;;;2.30;99.90;;;;;;5111843;28;20070;-62
2024/02/29 06:40:46;;;;;;;61.38;27.65;;;2.30;99.90;;;;;;5108513;28;20135;-60
2024/02/29 06:43:13;;;;;;;58.90;28.58;;;2.40;99.90;;;;;;5107566;28;20075;-59
2024/02/29 06:45:49;;;;;;;56.72;27.95;;;2.40;99.90;;;;;;5107412;28;20039;-60
2024/02/29 06:48:17;;;;;;;53.28;26.27;;;2.40;99.90;;;;;;5111352;28;20039;-60
2024/02/29 06:50:44;;;;;;;49.97;25.42;;;2.50;99.90;;;;;;5111620;28;20495;-64
2024/02/29 06:53:12;;;;;;;56.13;24.33;;;2.50;99.90;;;;;;5110097;28;20508;-62
2024/02/29 06:55:39;;;;;;;55.85;25.35;;;2.50;99.90;;;;;;5108961;28;20054;-60
2024/02/29 06:58:06;;;;;;;57.05;27.73;;;2.60;99.90;;;;;;5103747;28;20086;-60
2024/02/29 07:00:34;;;;;;;55.50;25.02;;;2.60;99.90;;;;;;5108753;28;20035;-61
2024/02/29 07:03:01;;;;;;;53.42;26.73;;;2.60;99.90;;;;;;5110852;28;20043;-60
2024/02/29 07:05:29;;;;;;;48.78;25.92;;;2.60;99.90;;;;;;5106789;28;20097;-60
2024/02/29 07:07:58;;;;;;;42.83;24.70;;;2.70;99.90;;;;;;5111499;28;20108;-60
2024/02/29 07:10:25;;;;;;;61.15;24.10;;;2.70;99.90;;;;;;5109510;28;20700;-60
2024/02/29 07:12:52;;;;;;;56.47;25.30;;;2.80;99.90;;;;;;5111314;28;20075;-60
2024/02/29 07:15:19;;;;;;;44.83;21.10;;;2.80;99.90;;;;;;5109224;28;20104;-60
2024/02/29 07:17:46;;;;;;;47.05;23.45;;;2.80;99.90;;;;;;5110375;28;20475;-66
2024/02/29 07:20:13;;;;;;;44.67;22.60;;;2.80;99.90;;;;;;5109206;28;20035;-59
2024/02/29 07:22:42;;;;;;;51.38;24.55;;;2.90;99.90;;;;;;5109741;28;20044;-59
2024/02/29 07:25:09;;;;;;;48.60;23.35;;;2.90;99.90;;;;;;5108629;28;20039;-60
2024/02/29 07:27:38;;;;;;;47.65;21.90;;;2.90;99.90;;;;;;5109955;28;20097;-60
2024/02/29 07:30:09;;;;;;;47.17;23.77;;;2.90;99.90;;;;;;5109251;28;20371;-61
2024/02/29 07:32:36;;;;;;;43.17;22.27;;;2.90;99.90;;;;;;5110529;28;20043;-61
2024/02/29 07:35:03;;;;;;;39.28;21.42;;;3.00;99.90;;;;;;5111995;28;20040;-63
2024/02/29 07:37:32;;;;;;;40.15;21.27;;;3.00;99.90;;;;;;5109386;28;20043;-59
2024/02/29 07:39:59;;;;;;;41.45;20.63;;;3.10;99.90;;;;;;5104539;28;20360;-62
2024/02/29 07:42:27;;;;;;;43.42;20.88;;;3.10;99.90;;;;;;5107911;28;20039;-59
2024/02/29 07:44:54;;;;;;;39.20;20.30;;;3.10;99.90;;;;;;5109126;28;20071;-59
2024/02/29 07:47:21;;;;;;;40.17;21.70;;;3.10;99.90;;;;;;5108924;28;20064;-60
2024/02/29 07:49:48;;;;;;;37.15;19.48;;;3.10;99.90;;;;;;5108261;28;20050;-64
2024/02/29 07:52:15;;;;;;;34.45;17.38;;;3.20;99.90;;;;;;5108765;28;20047;-59
2024/02/29 07:54:45;;;;;;;32.22;18.85;;;3.20;99.90;;;;;;5109321;28;20043;-59
2024/02/29 07:57:12;;;;;;;38.35;19.23;;;3.20;99.90;;;;;;5109875;28;20078;-59
2024/02/29 07:59:39;;;;;;;33.35;17.75;;;3.20;99.90;;;;;;5111157;28;20061;-62
2024/02/29 08:02:07;;;;;;;29.63;18.13;;;3.30;99.90;;;;;;5110373;28;20115;-59
2024/02/29 08:04:34;;;;;;;29.25;16.17;;;3.30;99.90;;;;;;5109073;28;20068;-59
2024/02/29 08:07:01;;;;;;;31.88;16.13;;;3.30;99.90;;;;;;5106432;28;20031;-61
2024/02/29 08:09:28;;;;;;;30.80;17.00;;;3.40;99.90;;;;;;5094735;28;20047;-60
2024/02/29 08:11:55;;;;;;;29.58;17.45;;;3.40;99.90;;;;;;5108784;28;20398;-59
2024/02/29 08:14:24;;;;;;;30.67;16.70;;;3.40;99.90;;;;;;5109879;28;20036;-60
2024/02/29 08:16:51;;;;;;;31.85;17.63;;;3.40;99.90;;;;;;5110127;28;20047;-61
2024/02/29 08:19:18;;;;;;;28.90;15.85;;;3.40;99.90;;;;;;5109171;28;20059;-61
2024/02/29 08:21:45;;;;;;;32.38;15.57;;;3.40;99.90;;;;;;5105404;28;20040;-60
2024/02/29 08:24:12;;;;;;;29.90;16.17;;;3.40;99.90;;;;;;5105610;28;20053;-59
2024/02/29 08:26:39;;;;;;;32.53;17.10;;;3.40;99.90;;;;;;5109775;28;20415;-60
2024/02/29 08:29:07;;;;;;;27.15;16.70;;;3.40;99.90;;;;;;5109509;28;20047;-62
2024/02/29 08:31:34;;;;;;;29.63;15.25;;;3.40;99.90;;;;;;5110292;28;20048;-60
2024/02/29 08:34:01;;;;;;;31.40;16.02;;;3.40;99.90;;;;;;5109931;28;20510;-59
2024/02/29 08:36:29;;;;;;;28.50;15.65;;;3.40;99.90;;;;;;5108937;28;20094;-59
2024/02/29 08:38:56;;;;;;;28.02;17.65;;;3.50;99.90;;;;;;5106534;28;20058;-61
2024/02/29 08:41:23;;;;;;;33.22;15.52;;;3.50;99.90;;;;;;5107267;28;20051;-59
2024/02/29 08:43:50;;;;;;;28.48;15.55;;;3.50;99.90;;;;;;5106107;28;20062;-60
2024/02/29 08:46:17;;;;;;;27.98;16.45;;;3.50;99.90;;;;;;5109530;28;20521;-61
2024/02/29 08:48:45;;;;;;;27.35;15.13;;;3.60;99.90;;;;;;5109581;28;20039;-63
2024/02/29 08:51:12;;;;;;;29.33;15.57;;;3.50;99.90;;;;;;5110121;28;20058;-60
2024/02/29 08:53:39;;;;;;;32.17;15.98;;;3.50;99.90;;;;;;5107282;28;20047;-60
2024/02/29 08:56:06;;;;;;;29.23;14.95;;;3.50;99.90;;;;;;5108053;28;20096;-67
2024/02/29 08:58:33;;;;;;;30.85;14.80;;;3.50;99.90;;;;;;5107779;28;20105;-63
2024/02/29 09:01:04;;;;;;;28.88;15.48;;;3.50;99.90;;;;;;5109615;28;20046;-61
2024/02/29 09:03:31;;;;;;;33.58;18.80;;;3.50;99.90;;;;;;5109402;28;20067;-64
2024/02/29 09:05:58;;;;;;;28.63;15.85;;;3.50;99.90;;;;;;5109260;28;20039;-59
2024/02/29 09:08:24;;;;;;;24.63;16.45;;;3.40;99.90;;;;;;5110183;28;20047;-62
2024/02/29 09:10:51;;;;;;;29.52;15.48;;;3.40;99.90;;;;;;5109858;28;20039;-62
2024/02/29 09:13:18;;;;;;;22.85;13.25;;;3.50;99.90;;;;;;5109924;28;20996;-60
2024/02/29 09:16:00;;;;;;;31.23;16.90;;;3.40;99.90;;;;;;5108452;28;20147;-62
2024/02/29 09:18:29;;;;;;;26.90;14.00;;;3.40;99.90;;;;;;5109756;28;20123;-62
2024/02/29 09:20:57;;;;;;;27.60;14.60;;;3.40;99.90;;;;;;5103105;28;20448;-60
2024/02/29 09:23:25;;;;;;;28.02;13.65;;;3.40;99.90;;;;;;5113602;28;20050;-60
2024/02/29 09:25:53;;;;;;;26.67;14.65;;;3.40;99.90;;;;;;5114173;28;20089;-60
2024/02/29 09:28:20;;;;;;;24.80;14.70;;;3.40;99.90;;;;;;5114096;28;20112;-60
2024/02/29 09:30:47;;;;;;;21.15;12.43;;;3.50;99.90;;;;;;5111138;28;20093;-66
2024/02/29 09:33:14;;;;;;;25.30;12.73;;;3.40;99.90;;;;;;5112151;28;20044;-59
2024/02/29 09:35:42;;;;;;;22.25;14.52;;;3.40;99.90;;;;;;5112740;28;20047;-64
2024/02/29 09:38:09;;;;;;;27.33;14.05;;;3.40;99.90;;;;;;5112813;28;20132;-67
2024/02/29 09:40:36;;;;;;;22.52;13.88;;;3.40;99.90;;;;;;5113815;28;20154;-59
2024/02/29 09:43:16;;;;;;;25.10;13.13;;;3.40;99.90;;;;;;5110872;28;20540;-59
2024/02/29 09:45:47;;;;;;;22.67;11.85;;;3.50;99.90;;;;;;5112164;28;20109;-65
2024/02/29 09:48:15;;;;;;;24.27;12.20;;;3.50;99.90;;;;;;5113637;28;20477;-59
2024/02/29 09:50:42;;;;;;;19.80;11.55;;;3.50;99.90;;;;;;5111729;28;20040;-65
2024/02/29 09:53:10;;;;;;;22.20;10.38;;;3.50;99.90;;;;;;5110010;28;20036;-60
2024/02/29 09:55:37;;;;;;;26.33;12.07;;;3.50;99.90;;;;;;5113041;28;20052;-59
2024/02/29 09:58:05;;;;;;;22.55;11.07;;;3.50;99.90;;;;;;5093603;28;20604;-59
2024/02/29 10:00:32;;;;;;;15.60;11.15;;;3.50;99.90;;;;;;5112149;28;20040;-61
2024/02/29 10:03:00;;;;;;;15.80;8.60;;;3.50;99.90;;;;;;5113271;28;20834;-59
2024/02/29 10:05:27;;;;;;;21.30;9.27;;;3.50;99.90;;;;;;5110491;28;20123;-62
2024/02/29 10:07:54;;;;;;;16.25;9.70;;;3.50;99.90;;;;;;5113691;28;20035;-61
2024/02/29 10:10:21;;;;;;;22.75;8.57;;;3.60;99.90;;;;;;5112223;28;20089;-60
2024/02/29 10:12:55;;;;;;;18.15;8.57;;;3.60;99.90;;;;;;5112698;28;20057;-61
2024/02/29 10:15:29;;;;;;;13.27;8.23;;;3.60;99.90;;;;;;5112032;28;20042;-59
2024/02/29 10:17:56;;;;;;;19.17;8.52;;;3.60;99.90;;;;;;5106460;28;20043;-59
2024/02/29 10:20:25;;;;;;;13.65;8.52;;;3.70;99.90;;;;;;5110080;28;20530;-59
2024/02/29 10:22:52;;;;;;;29.95;11.55;;;3.70;99.90;;;;;;5110605;28;20062;-61
2024/02/29 10:25:20;;;;;;;17.58;8.95;;;3.70;99.90;;;;;;5111476;28;20651;-59
2024/02/29 10:27:48;;;;;;;14.25;8.68;;;3.80;99.90;;;;;;5111327;28;20066;-59
2024/02/29 10:30:17;;;;;;;14.38;8.15;;;3.80;99.90;;;;;;5096583;28;20067;-59
2024/02/29 10:32:46;;;;;;;13.48;7.78;;;3.90;99.90;;;;;;5112121;28;20031;-60
2024/02/29 10:35:20;;;;;;;15.00;9.27;;;3.90;99.90;;;;;;5108113;28;20486;-60
2024/02/29 10:37:49;;;;;;;15.95;10.52;;;4.00;99.90;;;;;;5112782;28;20047;-62
2024/02/29 10:40:16;;;;;;;14.98;9.38;;;3.90;99.90;;;;;;5105804;28;20143;-62
2024/02/29 10:42:44;;;;;;;24.27;12.20;;;4.00;99.90;;;;;;5109857;28;20453;-60
2024/02/29 10:45:14;;;;;;;14.73;8.98;;;4.00;99.90;;;;;;5110565;28;20054;-62
2024/02/29 10:47:50;;;;;;;16.08;8.63;;;4.00;99.90;;;;;;5112066;28;20043;-62
2024/02/29 10:50:30;;;;;;;11.13;6.50;;;4.00;99.90;;;;;;5107063;28;20039;-59
2024/02/29 10:53:42;;;;;;;15.45;8.32;;;4.00;99.90;;;;;;5111838;28;20046;-59
2024/02/29 10:56:24;;;;;;;10.23;6.80;;;3.90;99.90;;;;;;5022120;28;20048;-59
2024/02/29 10:59:06;;;;;;;11.80;7.25;;;3.90;99.90;;;;;;5108850;28;20056;-60
2024/02/29 11:01:36;;;;;;;17.50;7.50;;;3.90;99.90;;;;;;5110155;28;20067;-59
2024/02/29 11:04:04;;;;;;;10.88;5.65;;;3.90;99.90;;;;;;5108518;28;20044;-59
2024/02/29 11:06:44;;;;;;;15.00;7.93;;;3.90;99.90;;;;;;5103968;28;20043;-62
2024/02/29 11:09:17;;;;;;;12.45;6.88;;;3.80;99.90;;;;;;5105649;28;20050;-62
2024/02/29 11:11:45;;;;;;;16.30;6.38;;;3.80;99.90;;;;;;5109020;28;20093;-63
2024/02/29 11:14:13;;;;;;;11.77;5.38;;;3.80;99.90;;;;;;5109811;28;20086;-59
2024/02/29 11:16:47;;;;;;;12.43;6.32;;;3.90;99.90;;;;;;5110572;28;20056;-61
2024/02/29 11:19:17;;;;;;;15.73;5.90;;;4.00;99.90;;;;;;5107867;28;20040;-59
2024/02/29 11:21:45;;;;;;;14.05;5.65;;;3.90;99.90;;;;;;5111595;28;20682;-59
2024/02/29 11:24:20;;;;;;;11.60;5.00;;;4.00;99.90;;;;;;5105773;28;20131;-63
2024/02/29 11:26:55;;;;;;;9.30;5.13;;;4.00;99.90;;;;;;5108465;28;20036;-61
2024/02/29 11:29:22;;;;;;;7.85;5.13;;;3.90;99.90;;;;;;5105559;28;20043;-61
2024/02/29 11:31:53;;;;;;;10.82;4.60;;;4.00;99.90;;;;;;5091876;28;20465;-61
2024/02/29 11:34:23;;;;;;;12.68;4.93;;;3.90;99.90;;;;;;5108513;28;20044;-59
2024/02/29 11:36:51;;;;;;;6.85;4.30;;;4.00;99.90;;;;;;5090590;28;20043;-61
2024/02/29 11:39:22;;;;;;;8.63;4.28;;;4.00;99.90;;;;;;5109637;28;20128;-59
2024/02/29 11:42:03;;;;;;;10.57;5.70;;;4.10;99.90;;;;;;5106389;28;20054;-64
2024/02/29 11:44:31;;;;;;;11.70;5.30;;;4.20;99.90;;;;;;5107027;28;20051;-59
2024/02/29 11:46:59;;;;;;;11.45;5.60;;;4.20;99.90;;;;;;5107770;28;20035;-59
2024/02/29 11:49:26;;;;;;;12.50;4.70;;;4.30;99.90;;;;;;5109794;28;20048;-59
2024/02/29 11:51:55;;;;;;;11.40;5.90;;;4.30;99.90;;;;;;5109944;28;20048;-59
2024/02/29 11:54:22;;;;;;;15.25;8.48;;;4.30;99.90;;;;;;5109893;28;20046;-59
2024/02/29 11:56:53;;;;;;;17.02;5.97;;;4.20;99.90;;;;;;5106446;28;20438;-60
2024/02/29 11:59:21;;;;;;;9.48;6.10;;;4.20;99.90;;;;;;5106775;28;20047;-61
2024/02/29 12:01:48;;;;;;;14.52;4.78;;;4.20;99.90;;;;;;5109227;28;20058;-61
2024/02/29 12:04:15;;;;;;;6.53;4.40;;;4.20;99.90;;;;;;5109573;28;20043;-64
2024/02/29 12:06:45;;;;;;;11.85;6.93;;;4.30;99.90;;;;;;5107789;28;20164;-61
2024/02/29 12:09:13;;;;;;;9.20;5.82;;;4.30;99.90;;;;;;5109644;28;20051;-61
2024/02/29 12:11:43;;;;;;;11.73;4.07;;;4.20;99.90;;;;;;5106558;28;20039;-60
2024/02/29 12:14:10;;;;;;;10.15;5.32;;;4.20;99.90;;;;;;5107984;28;20436;-62
2024/02/29 12:16:42;;;;;;;14.90;5.55;;;4.20;99.90;;;;;;5105163;28;20039;-61
2024/02/29 12:19:09;;;;;;;10.02;5.63;;;4.10;99.90;;;;;;5109135;28;20050;-60
2024/02/29 12:21:36;;;;;;;10.18;6.75;;;4.00;99.90;;;;;;5107082;28;20027;-62
2024/02/29 12:24:09;;;;;;;8.90;4.97;;;4.00;99.90;;;;;;5106703;28;20073;-62
2024/02/29 12:26:38;;;;;;;16.40;6.18;;;4.00;99.90;;;;;;5108478;28;20479;-62
2024/02/29 12:29:07;;;;;;;11.93;6.75;;;4.00;99.90;;;;;;5105817;28;20077;-60
2024/02/29 12:31:34;;;;;;;8.05;4.47;;;4.00;99.90;;;;;;5108594;28;20126;-62
2024/02/29 12:34:03;;;;;;;10.30;4.80;;;3.90;99.90;;;;;;5108314;28;20050;-59
2024/02/29 12:36:31;;;;;;;6.55;4.55;;;3.90;99.90;;;;;;5106138;28;20043;-59
2024/02/29 12:39:01;;;;;;;9.77;4.90;;;3.80;99.90;;;;;;5107354;28;20051;-65
2024/02/29 12:41:28;;;;;;;13.25;5.60;;;3.80;99.90;;;;;;5106951;28;20036;-59
2024/02/29 12:43:56;;;;;;;9.68;5.43;;;3.90;99.90;;;;;;5109090;28;20047;-61
2024/02/29 12:46:26;;;;;;;8.27;5.35;;;3.80;99.90;;;;;;5108347;28;20050;-62